E38ALPINE-CASPARIS MUNI
METARs for airports near E38, sorted by distance:
W 17 nm 4848' KMRF 221856Z 22007G16KT 180V260 10SM CLR 20/09 A3018
SW 57 nm 2938' KPRS 221935Z 00000KT 10SM CLR 26/13 A3007
N 60 nm 2613' KPEQ 221935Z 00000KT 10SM CLR 24/10 A3006
NW 69 nm 3956' KVHN 221935Z 12005KT 10SM CLR 24/09 A3011
N 87 nm 2821' KINK 221053Z 12008KT 10SM OVC048 12/06 A3017
TAFs for airports near E38, sorted by distance:
N 60 nm 2613' KPEQ KPEQ 221731Z 2218/2318 11008KT P6SM FEW250
  FM222200 12014G21KT P6SM SKC
  FM230200 11010KT P6SM SKC
N 87 nm 2821' KINK KINK 221731Z 2218/2318 17013G21KT P6SM SKC
  FM230100 14014KT P6SM SKC
  FM230800 17010KT P6SM SKC

Shortcut to this page: http://wxbay.com.

Data may contain errors.